sensor_id;sensor_type;location;lat;lon;timestamp;temperature;humidity
70107;DHT22;57473;37.508;15.080;2022-09-13T00:01:12;25.40;65.50
70107;DHT22;57473;37.508;15.080;2022-09-13T00:03:40;25.30;65.70
70107;DHT22;57473;37.508;15.080;2022-09-13T00:06:13;25.40;65.50
70107;DHT22;57473;37.508;15.080;2022-09-13T00:08:41;25.30;65.40
70107;DHT22;57473;37.508;15.080;2022-09-13T00:11:15;25.30;65.60
70107;DHT22;57473;37.508;15.080;2022-09-13T00:13:43;25.30;65.80
70107;DHT22;57473;37.508;15.080;2022-09-13T00:16:12;25.20;66.00
70107;DHT22;57473;37.508;15.080;2022-09-13T00:18:40;25.20;66.10
70107;DHT22;57473;37.508;15.080;2022-09-13T00:21:10;25.20;66.30
70107;DHT22;57473;37.508;15.080;2022-09-13T00:23:39;25.20;66.20
70107;DHT22;57473;37.508;15.080;2022-09-13T00:26:11;25.20;66.40
70107;DHT22;57473;37.508;15.080;2022-09-13T00:28:39;25.10;66.60
70107;DHT22;57473;37.508;15.080;2022-09-13T00:31:08;25.10;66.70
70107;DHT22;57473;37.508;15.080;2022-09-13T00:33:35;25.00;66.80
70107;DHT22;57473;37.508;15.080;2022-09-13T00:36:04;25.00;66.80
70107;DHT22;57473;37.508;15.080;2022-09-13T00:38:37;25.00;67.00
70107;DHT22;57473;37.508;15.080;2022-09-13T00:41:08;25.00;67.30
70107;DHT22;57473;37.508;15.080;2022-09-13T00:43:54;24.90;67.30
70107;DHT22;57473;37.508;15.080;2022-09-13T00:49:20;24.90;67.60
70107;DHT22;57473;37.508;15.080;2022-09-13T00:51:51;24.90;67.60
70107;DHT22;57473;37.508;15.080;2022-09-13T00:54:23;24.90;67.50
70107;DHT22;57473;37.508;15.080;2022-09-13T00:56:54;24.90;67.50
70107;DHT22;57473;37.508;15.080;2022-09-13T00:59:26;24.90;67.40
70107;DHT22;57473;37.508;15.080;2022-09-13T01:01:55;24.90;67.50
70107;DHT22;57473;37.508;15.080;2022-09-13T01:04:25;24.90;67.40
70107;DHT22;57473;37.508;15.080;2022-09-13T01:06:58;24.90;67.40
70107;DHT22;57473;37.508;15.080;2022-09-13T01:09:27;24.90;67.50
70107;DHT22;57473;37.508;15.080;2022-09-13T01:12:01;24.90;67.50
70107;DHT22;57473;37.508;15.080;2022-09-13T01:14:32;24.80;67.50
70107;DHT22;57473;37.508;15.080;2022-09-13T01:17:00;24.80;67.70
70107;DHT22;57473;37.508;15.080;2022-09-13T01:19:27;24.80;67.90
70107;DHT22;57473;37.508;15.080;2022-09-13T01:25:39;24.80;67.60
70107;DHT22;57473;37.508;15.080;2022-09-13T01:34:22;24.70;67.70
70107;DHT22;57473;37.508;15.080;2022-09-13T01:42:47;24.60;68.20
70107;DHT22;57473;37.508;15.080;2022-09-13T01:48:16;24.60;68.00
70107;DHT22;57473;37.508;15.080;2022-09-13T01:51:01;24.60;68.20
70107;DHT22;57473;37.508;15.080;2022-09-13T01:56:22;24.50;67.80
70107;DHT22;57473;37.508;15.080;2022-09-13T01:58:59;24.50;68.00
70107;DHT22;57473;37.508;15.080;2022-09-13T02:01:33;24.50;68.00
70107;DHT22;57473;37.508;15.080;2022-09-13T02:04:08;24.40;67.90
70107;DHT22;57473;37.508;15.080;2022-09-13T02:07:02;24.50;67.80
70107;DHT22;57473;37.508;15.080;2022-09-13T02:09:34;24.50;67.90
70107;DHT22;57473;37.508;15.080;2022-09-13T02:12:07;24.40;67.80
70107;DHT22;57473;37.508;15.080;2022-09-13T02:14:38;24.40;67.80
70107;DHT22;57473;37.508;15.080;2022-09-13T02:17:17;24.40;67.80
70107;DHT22;57473;37.508;15.080;2022-09-13T02:19:54;24.40;67.80
70107;DHT22;57473;37.508;15.080;2022-09-13T02:22:29;24.30;68.00
70107;DHT22;57473;37.508;15.080;2022-09-13T02:25:05;24.30;67.90
70107;DHT22;57473;37.508;15.080;2022-09-13T02:27:36;24.30;68.00
70107;DHT22;57473;37.508;15.080;2022-09-13T02:30:08;24.30;67.90
70107;DHT22;57473;37.508;15.080;2022-09-13T02:32:42;24.20;67.90
70107;DHT22;57473;37.508;15.080;2022-09-13T02:37:58;24.20;68.10
70107;DHT22;57473;37.508;15.080;2022-09-13T02:40:32;24.20;67.90
70107;DHT22;57473;37.508;15.080;2022-09-13T02:43:19;24.20;67.90
70107;DHT22;57473;37.508;15.080;2022-09-13T02:46:12;24.10;68.00
70107;DHT22;57473;37.508;15.080;2022-09-13T02:51:24;24.20;67.80
70107;DHT22;57473;37.508;15.080;2022-09-13T02:54:15;24.10;68.10
70107;DHT22;57473;37.508;15.080;2022-09-13T02:57:17;24.10;68.10
70107;DHT22;57473;37.508;15.080;2022-09-13T02:59:42;24.10;68.10
70107;DHT22;57473;37.508;15.080;2022-09-13T03:02:13;24.10;68.10
70107;DHT22;57473;37.508;15.080;2022-09-13T03:04:41;24.00;68.20
70107;DHT22;57473;37.508;15.080;2022-09-13T03:07:13;24.00;68.20
70107;DHT22;57473;37.508;15.080;2022-09-13T03:09:47;24.00;68.40
70107;DHT22;57473;37.508;15.080;2022-09-13T03:12:50;24.00;68.10
70107;DHT22;57473;37.508;15.080;2022-09-13T03:26:13;23.90;68.00
70107;DHT22;57473;37.508;15.080;2022-09-13T03:34:45;23.90;67.30
70107;DHT22;57473;37.508;15.080;2022-09-13T03:37:22;23.80;67.10
70107;DHT22;57473;37.508;15.080;2022-09-13T03:39:56;23.80;67.10
70107;DHT22;57473;37.508;15.080;2022-09-13T03:42:31;23.80;66.60
70107;DHT22;57473;37.508;15.080;2022-09-13T03:45:01;23.80;66.50
70107;DHT22;57473;37.508;15.080;2022-09-13T03:47:32;23.70;66.80
70107;DHT22;57473;37.508;15.080;2022-09-13T03:50:01;23.70;66.50
70107;DHT22;57473;37.508;15.080;2022-09-13T03:52:30;23.70;66.50
70107;DHT22;57473;37.508;15.080;2022-09-13T03:54:57;23.70;66.40
70107;DHT22;57473;37.508;15.080;2022-09-13T03:57:25;23.70;66.30
70107;DHT22;57473;37.508;15.080;2022-09-13T03:59:54;23.80;66.40
70107;DHT22;57473;37.508;15.080;2022-09-13T04:02:23;23.80;66.00
70107;DHT22;57473;37.508;15.080;2022-09-13T04:04:51;23.80;65.80
70107;DHT22;57473;37.508;15.080;2022-09-13T04:07:21;23.80;65.60
70107;DHT22;57473;37.508;15.080;2022-09-13T04:09:49;23.80;65.60
70107;DHT22;57473;37.508;15.080;2022-09-13T04:12:17;23.80;65.70
70107;DHT22;57473;37.508;15.080;2022-09-13T04:14:45;23.80;65.90
70107;DHT22;57473;37.508;15.080;2022-09-13T04:17:13;23.80;66.10
70107;DHT22;57473;37.508;15.080;2022-09-13T04:19:41;23.70;66.10
70107;DHT22;57473;37.508;15.080;2022-09-13T04:22:10;23.70;66.30
70107;DHT22;57473;37.508;15.080;2022-09-13T04:24:37;23.60;66.20
70107;DHT22;57473;37.508;15.080;2022-09-13T04:27:06;23.60;66.40
70107;DHT22;57473;37.508;15.080;2022-09-13T04:29:33;23.60;66.30
70107;DHT22;57473;37.508;15.080;2022-09-13T04:32:01;23.60;65.90
70107;DHT22;57473;37.508;15.080;2022-09-13T04:34:28;23.60;65.70
70107;DHT22;57473;37.508;15.080;2022-09-13T04:36:56;23.60;65.60
70107;DHT22;57473;37.508;15.080;2022-09-13T04:39:23;23.60;65.50
70107;DHT22;57473;37.508;15.080;2022-09-13T04:41:51;23.60;65.70
70107;DHT22;57473;37.508;15.080;2022-09-13T04:44:21;23.50;65.80
70107;DHT22;57473;37.508;15.080;2022-09-13T04:46:50;23.50;65.80
70107;DHT22;57473;37.508;15.080;2022-09-13T04:49:18;23.50;65.80
70107;DHT22;57473;37.508;15.080;2022-09-13T04:51:46;23.50;65.80
70107;DHT22;57473;37.508;15.080;2022-09-13T04:54:14;23.50;66.00
70107;DHT22;57473;37.508;15.080;2022-09-13T04:56:43;23.50;65.50
70107;DHT22;57473;37.508;15.080;2022-09-13T04:59:11;23.50;65.60
70107;DHT22;57473;37.508;15.080;2022-09-13T05:01:39;23.50;65.70
70107;DHT22;57473;37.508;15.080;2022-09-13T05:04:08;23.50;65.80
70107;DHT22;57473;37.508;15.080;2022-09-13T05:06:36;23.50;65.70
70107;DHT22;57473;37.508;15.080;2022-09-13T05:09:03;23.60;65.50
70107;DHT22;57473;37.508;15.080;2022-09-13T05:11:32;23.60;65.30
70107;DHT22;57473;37.508;15.080;2022-09-13T05:13:59;23.70;65.10
70107;DHT22;57473;37.508;15.080;2022-09-13T05:16:30;23.70;65.00
70107;DHT22;57473;37.508;15.080;2022-09-13T05:18:58;23.70;65.00
70107;DHT22;57473;37.508;15.080;2022-09-13T05:21:26;23.70;64.80
70107;DHT22;57473;37.508;15.080;2022-09-13T05:23:57;23.70;64.70
70107;DHT22;57473;37.508;15.080;2022-09-13T05:26:27;23.80;64.40
70107;DHT22;57473;37.508;15.080;2022-09-13T05:29:00;23.90;64.20
70107;DHT22;57473;37.508;15.080;2022-09-13T05:31:31;23.90;64.00
70107;DHT22;57473;37.508;15.080;2022-09-13T05:34:05;24.00;63.70
70107;DHT22;57473;37.508;15.080;2022-09-13T05:36:34;24.10;63.60
70107;DHT22;57473;37.508;15.080;2022-09-13T05:39:02;24.20;63.20
70107;DHT22;57473;37.508;15.080;2022-09-13T05:41:50;24.30;62.90
70107;DHT22;57473;37.508;15.080;2022-09-13T05:44:17;24.30;62.60
70107;DHT22;57473;37.508;15.080;2022-09-13T05:46:47;24.40;62.50
70107;DHT22;57473;37.508;15.080;2022-09-13T05:49:15;24.50;62.00
70107;DHT22;57473;37.508;15.080;2022-09-13T05:51:43;24.60;61.90
70107;DHT22;57473;37.508;15.080;2022-09-13T05:54:11;24.70;61.60
70107;DHT22;57473;37.508;15.080;2022-09-13T05:56:39;24.70;61.10
70107;DHT22;57473;37.508;15.080;2022-09-13T05:59:10;24.80;61.00
70107;DHT22;57473;37.508;15.080;2022-09-13T06:01:37;24.90;61.10
70107;DHT22;57473;37.508;15.080;2022-09-13T06:04:04;24.90;60.60
70107;DHT22;57473;37.508;15.080;2022-09-13T06:06:31;24.90;60.40
70107;DHT22;57473;37.508;15.080;2022-09-13T06:08:58;25.00;60.70
70107;DHT22;57473;37.508;15.080;2022-09-13T06:11:26;25.00;60.70
70107;DHT22;57473;37.508;15.080;2022-09-13T06:13:53;25.00;60.50
70107;DHT22;57473;37.508;15.080;2022-09-13T06:16:21;25.20;60.70
70107;DHT22;57473;37.508;15.080;2022-09-13T06:18:48;25.40;60.70
70107;DHT22;57473;37.508;15.080;2022-09-13T06:21:18;25.50;60.10
70107;DHT22;57473;37.508;15.080;2022-09-13T06:23:48;25.70;59.50
70107;DHT22;57473;37.508;15.080;2022-09-13T06:26:19;25.90;59.40
70107;DHT22;57473;37.508;15.080;2022-09-13T06:28:52;26.10;59.90
70107;DHT22;57473;37.508;15.080;2022-09-13T06:31:22;26.20;59.90
70107;DHT22;57473;37.508;15.080;2022-09-13T06:33:58;26.40;60.20
70107;DHT22;57473;37.508;15.080;2022-09-13T06:36:27;26.40;59.60
70107;DHT22;57473;37.508;15.080;2022-09-13T06:38:54;26.50;59.60
70107;DHT22;57473;37.508;15.080;2022-09-13T06:41:23;26.50;59.50
70107;DHT22;57473;37.508;15.080;2022-09-13T06:43:55;26.50;59.60
70107;DHT22;57473;37.508;15.080;2022-09-13T06:46:25;26.60;59.40
70107;DHT22;57473;37.508;15.080;2022-09-13T06:48:52;26.60;59.50
70107;DHT22;57473;37.508;15.080;2022-09-13T06:51:21;26.70;59.40
70107;DHT22;57473;37.508;15.080;2022-09-13T06:53:50;26.70;59.20
70107;DHT22;57473;37.508;15.080;2022-09-13T06:56:20;26.80;59.60
70107;DHT22;57473;37.508;15.080;2022-09-13T06:58:49;26.90;59.10
70107;DHT22;57473;37.508;15.080;2022-09-13T07:01:22;26.90;59.10
70107;DHT22;57473;37.508;15.080;2022-09-13T07:03:57;27.00;58.80
70107;DHT22;57473;37.508;15.080;2022-09-13T07:06:27;27.00;58.60
70107;DHT22;57473;37.508;15.080;2022-09-13T07:08:56;27.10;58.50
70107;DHT22;57473;37.508;15.080;2022-09-13T07:11:25;27.00;58.30
70107;DHT22;57473;37.508;15.080;2022-09-13T07:13:54;26.90;58.30
70107;DHT22;57473;37.508;15.080;2022-09-13T07:16:25;27.00;58.30
70107;DHT22;57473;37.508;15.080;2022-09-13T07:19:00;27.10;58.00
70107;DHT22;57473;37.508;15.080;2022-09-13T07:21:28;27.00;58.20
70107;DHT22;57473;37.508;15.080;2022-09-13T07:23:55;27.10;57.50
70107;DHT22;57473;37.508;15.080;2022-09-13T07:26:24;27.10;57.30
70107;DHT22;57473;37.508;15.080;2022-09-13T07:28:56;27.20;57.50
70107;DHT22;57473;37.508;15.080;2022-09-13T07:31:29;27.20;57.00
70107;DHT22;57473;37.508;15.080;2022-09-13T07:34:01;27.20;56.80
70107;DHT22;57473;37.508;15.080;2022-09-13T07:36:30;27.30;56.30
70107;DHT22;57473;37.508;15.080;2022-09-13T07:38:58;27.40;56.20
70107;DHT22;57473;37.508;15.080;2022-09-13T07:41:27;27.60;55.90
70107;DHT22;57473;37.508;15.080;2022-09-13T07:43:55;27.70;55.40
70107;DHT22;57473;37.508;15.080;2022-09-13T07:46:27;27.90;55.10
70107;DHT22;57473;37.508;15.080;2022-09-13T07:48:59;28.00;54.60
70107;DHT22;57473;37.508;15.080;2022-09-13T07:51:33;28.20;54.20
70107;DHT22;57473;37.508;15.080;2022-09-13T07:54:03;28.20;53.80
70107;DHT22;57473;37.508;15.080;2022-09-13T07:56:33;28.20;54.10
70107;DHT22;57473;37.508;15.080;2022-09-13T07:59:04;28.30;53.70
70107;DHT22;57473;37.508;15.080;2022-09-13T08:01:36;28.50;53.20
70107;DHT22;57473;37.508;15.080;2022-09-13T08:04:05;28.70;52.90
70107;DHT22;57473;37.508;15.080;2022-09-13T08:06:34;28.80;52.00
70107;DHT22;57473;37.508;15.080;2022-09-13T08:09:03;29.00;51.80
70107;DHT22;57473;37.508;15.080;2022-09-13T08:11:45;29.20;51.20
70107;DHT22;57473;37.508;15.080;2022-09-13T08:14:22;29.30;51.00
70107;DHT22;57473;37.508;15.080;2022-09-13T08:16:50;29.30;50.80
70107;DHT22;57473;37.508;15.080;2022-09-13T08:19:25;29.40;51.30
70107;DHT22;57473;37.508;15.080;2022-09-13T08:21:52;29.60;50.60
70107;DHT22;57473;37.508;15.080;2022-09-13T08:24:20;29.60;50.00
70107;DHT22;57473;37.508;15.080;2022-09-13T08:26:48;29.60;49.90
70107;DHT22;57473;37.508;15.080;2022-09-13T08:29:29;29.60;49.90
70107;DHT22;57473;37.508;15.080;2022-09-13T08:31:56;29.60;50.40
70107;DHT22;57473;37.508;15.080;2022-09-13T08:34:23;29.70;49.60
70107;DHT22;57473;37.508;15.080;2022-09-13T08:36:52;29.70;49.60
70107;DHT22;57473;37.508;15.080;2022-09-13T08:39:20;29.80;49.40
70107;DHT22;57473;37.508;15.080;2022-09-13T08:42:09;29.80;48.00
70107;DHT22;57473;37.508;15.080;2022-09-13T08:44:44;30.00;45.90
70107;DHT22;57473;37.508;15.080;2022-09-13T08:50:41;30.00;48.00
70107;DHT22;57473;37.508;15.080;2022-09-13T08:53:30;30.20;47.20
70107;DHT22;57473;37.508;15.080;2022-09-13T09:07:03;30.90;45.60
70107;DHT22;57473;37.508;15.080;2022-09-13T09:09:38;31.00;44.90
70107;DHT22;57473;37.508;15.080;2022-09-13T09:12:17;31.30;42.60
70107;DHT22;57473;37.508;15.080;2022-09-13T09:14:56;31.40;40.40
70107;DHT22;57473;37.508;15.080;2022-09-13T09:22:51;30.80;41.40
70107;DHT22;57473;37.508;15.080;2022-09-13T09:25:22;30.50;41.00
70107;DHT22;57473;37.508;15.080;2022-09-13T09:27:52;30.60;41.40
70107;DHT22;57473;37.508;15.080;2022-09-13T09:33:59;31.00;40.60
70107;DHT22;57473;37.508;15.080;2022-09-13T09:39:11;31.50;38.30
70107;DHT22;57473;37.508;15.080;2022-09-13T09:41:43;31.50;41.20
70107;DHT22;57473;37.508;15.080;2022-09-13T09:46:42;31.20;42.80
70107;DHT22;57473;37.508;15.080;2022-09-13T09:52:58;31.00;43.70
70107;DHT22;57473;37.508;15.080;2022-09-13T09:58:02;30.90;43.00
70107;DHT22;57473;37.508;15.080;2022-09-13T10:00:35;30.90;42.80
70107;DHT22;57473;37.508;15.080;2022-09-13T10:03:06;30.70;43.80
70107;DHT22;57473;37.508;15.080;2022-09-13T10:05:35;30.60;43.30
70107;DHT22;57473;37.508;15.080;2022-09-13T10:08:07;30.70;44.30
70107;DHT22;57473;37.508;15.080;2022-09-13T10:10:41;30.80;42.20
70107;DHT22;57473;37.508;15.080;2022-09-13T10:13:20;30.90;42.10
70107;DHT22;57473;37.508;15.080;2022-09-13T10:15:53;31.10;40.00
70107;DHT22;57473;37.508;15.080;2022-09-13T10:18:22;31.00;40.10
70107;DHT22;57473;37.508;15.080;2022-09-13T10:21:22;31.00;39.70
70107;DHT22;57473;37.508;15.080;2022-09-13T10:23:50;31.10;40.50
70107;DHT22;57473;37.508;15.080;2022-09-13T10:26:22;31.10;40.90
70107;DHT22;57473;37.508;15.080;2022-09-13T10:28:55;31.20;41.50
70107;DHT22;57473;37.508;15.080;2022-09-13T10:31:34;31.40;40.60
70107;DHT22;57473;37.508;15.080;2022-09-13T10:34:13;31.40;41.90
70107;DHT22;57473;37.508;15.080;2022-09-13T10:43:13;31.20;45.90
70107;DHT22;57473;37.508;15.080;2022-09-13T10:45:42;31.00;41.50
70107;DHT22;57473;37.508;15.080;2022-09-13T10:48:15;31.20;40.50
70107;DHT22;57473;37.508;15.080;2022-09-13T10:51:06;31.00;42.50
70107;DHT22;57473;37.508;15.080;2022-09-13T10:53:40;31.10;41.50
70107;DHT22;57473;37.508;15.080;2022-09-13T10:56:26;31.40;41.90
70107;DHT22;57473;37.508;15.080;2022-09-13T10:59:13;31.70;42.50
70107;DHT22;57473;37.508;15.080;2022-09-13T11:07:50;32.80;34.80
70107;DHT22;57473;37.508;15.080;2022-09-13T11:10:39;33.40;32.40
70107;DHT22;57473;37.508;15.080;2022-09-13T11:16:14;34.00;29.50
70107;DHT22;57473;37.508;15.080;2022-09-13T11:22:20;34.30;29.20
70107;DHT22;57473;37.508;15.080;2022-09-13T11:31:34;35.40;26.20
70107;DHT22;57473;37.508;15.080;2022-09-13T11:37:14;35.50;26.90
70107;DHT22;57473;37.508;15.080;2022-09-13T11:40:33;35.10;28.20
70107;DHT22;57473;37.508;15.080;2022-09-13T11:56:46;36.40;27.60
70107;DHT22;57473;37.508;15.080;2022-09-13T12:00:03;36.70;25.90
70107;DHT22;57473;37.508;15.080;2022-09-13T12:05:18;36.70;24.40
70107;DHT22;57473;37.508;15.080;2022-09-13T12:13:34;36.70;26.30
70107;DHT22;57473;37.508;15.080;2022-09-13T12:16:08;36.60;27.50
70107;DHT22;57473;37.508;15.080;2022-09-13T12:18:43;36.10;26.50
70107;DHT22;57473;37.508;15.080;2022-09-13T12:21:19;36.00;25.90
70107;DHT22;57473;37.508;15.080;2022-09-13T12:24:11;36.40;26.80
70107;DHT22;57473;37.508;15.080;2022-09-13T12:29:55;36.90;27.80
70107;DHT22;57473;37.508;15.080;2022-09-13T12:32:23;36.30;30.40
70107;DHT22;57473;37.508;15.080;2022-09-13T12:35:09;36.10;29.10
70107;DHT22;57473;37.508;15.080;2022-09-13T12:37:57;36.00;29.80
70107;DHT22;57473;37.508;15.080;2022-09-13T12:57:20;36.20;31.30
70107;DHT22;57473;37.508;15.080;2022-09-13T13:00:19;36.20;30.90
70107;DHT22;57473;37.508;15.080;2022-09-13T13:05:49;36.30;31.00
70107;DHT22;57473;37.508;15.080;2022-09-13T13:11:06;36.30;31.40
70107;DHT22;57473;37.508;15.080;2022-09-13T13:13:52;36.50;31.80
70107;DHT22;57473;37.508;15.080;2022-09-13T13:16:35;36.40;31.30
70107;DHT22;57473;37.508;15.080;2022-09-13T13:21:55;35.90;32.60
70107;DHT22;57473;37.508;15.080;2022-09-13T13:24:47;35.90;32.70
70107;DHT22;57473;37.508;15.080;2022-09-13T13:27:37;35.60;34.00
70107;DHT22;57473;37.508;15.080;2022-09-13T13:33:20;36.30;32.80
70107;DHT22;57473;37.508;15.080;2022-09-13T13:35:48;36.50;32.70
70107;DHT22;57473;37.508;15.080;2022-09-13T13:40:50;36.00;32.80
70107;DHT22;57473;37.508;15.080;2022-09-13T13:43:28;36.30;32.50
70107;DHT22;57473;37.508;15.080;2022-09-13T13:46:21;36.10;32.50
70107;DHT22;57473;37.508;15.080;2022-09-13T13:48:46;35.30;33.00
70107;DHT22;57473;37.508;15.080;2022-09-13T13:51:17;34.20;34.60
70107;DHT22;57473;37.508;15.080;2022-09-13T13:54:00;33.30;37.50
70107;DHT22;57473;37.508;15.080;2022-09-13T13:56:53;32.60;37.80
70107;DHT22;57473;37.508;15.080;2022-09-13T13:59:30;31.90;39.90
70107;DHT22;57473;37.508;15.080;2022-09-13T14:01:59;31.30;40.90
70107;DHT22;57473;37.508;15.080;2022-09-13T14:22:12;30.10;45.70
70107;DHT22;57473;37.508;15.080;2022-09-13T14:27:46;29.50;46.40
70107;DHT22;57473;37.508;15.080;2022-09-13T14:30:33;29.40;47.10
70107;DHT22;57473;37.508;15.080;2022-09-13T14:33:02;29.30;46.90
70107;DHT22;57473;37.508;15.080;2022-09-13T14:35:34;29.40;45.90
70107;DHT22;57473;37.508;15.080;2022-09-13T14:38:24;29.40;45.90
70107;DHT22;57473;37.508;15.080;2022-09-13T14:40:58;29.40;47.00
70107;DHT22;57473;37.508;15.080;2022-09-13T14:43:30;29.30;47.00
70107;DHT22;57473;37.508;15.080;2022-09-13T14:48:38;29.30;47.10
70107;DHT22;57473;37.508;15.080;2022-09-13T14:51:19;29.20;48.50
70107;DHT22;57473;37.508;15.080;2022-09-13T14:53:51;29.10;48.20
70107;DHT22;57473;37.508;15.080;2022-09-13T14:56:32;29.00;49.40
70107;DHT22;57473;37.508;15.080;2022-09-13T14:59:04;28.90;48.40
70107;DHT22;57473;37.508;15.080;2022-09-13T15:01:34;29.00;50.10
70107;DHT22;57473;37.508;15.080;2022-09-13T15:04:03;28.80;50.90
70107;DHT22;57473;37.508;15.080;2022-09-13T15:06:37;28.80;51.30
70107;DHT22;57473;37.508;15.080;2022-09-13T15:14:26;28.80;50.00
70107;DHT22;57473;37.508;15.080;2022-09-13T15:19:34;28.90;50.80
70107;DHT22;57473;37.508;15.080;2022-09-13T15:22:21;28.80;50.40
70107;DHT22;57473;37.508;15.080;2022-09-13T15:24:51;28.80;49.80
70107;DHT22;57473;37.508;15.080;2022-09-13T15:27:42;28.70;49.50
70107;DHT22;57473;37.508;15.080;2022-09-13T15:30:26;28.60;49.50
70107;DHT22;57473;37.508;15.080;2022-09-13T15:35:41;28.50;50.10
70107;DHT22;57473;37.508;15.080;2022-09-13T15:40:44;28.40;49.90
70107;DHT22;57473;37.508;15.080;2022-09-13T15:43:12;28.40;50.60
70107;DHT22;57473;37.508;15.080;2022-09-13T15:45:41;28.40;51.50
70107;DHT22;57473;37.508;15.080;2022-09-13T15:48:19;28.40;51.10
70107;DHT22;57473;37.508;15.080;2022-09-13T15:51:10;28.30;49.80
70107;DHT22;57473;37.508;15.080;2022-09-13T15:53:39;28.30;51.20
70107;DHT22;57473;37.508;15.080;2022-09-13T15:56:13;28.30;51.70
70107;DHT22;57473;37.508;15.080;2022-09-13T15:58:40;28.30;52.20
70107;DHT22;57473;37.508;15.080;2022-09-13T16:01:11;28.30;52.10
70107;DHT22;57473;37.508;15.080;2022-09-13T16:03:39;28.20;50.90
70107;DHT22;57473;37.508;15.080;2022-09-13T16:06:07;28.10;51.40
70107;DHT22;57473;37.508;15.080;2022-09-13T16:08:36;28.10;51.70
70107;DHT22;57473;37.508;15.080;2022-09-13T16:11:03;27.90;51.40
70107;DHT22;57473;37.508;15.080;2022-09-13T16:13:33;27.90;51.30
70107;DHT22;57473;37.508;15.080;2022-09-13T16:16:00;27.90;51.70
70107;DHT22;57473;37.508;15.080;2022-09-13T16:18:27;27.90;52.10
70107;DHT22;57473;37.508;15.080;2022-09-13T16:20:55;27.90;52.00
70107;DHT22;57473;37.508;15.080;2022-09-13T16:23:22;27.90;51.20
70107;DHT22;57473;37.508;15.080;2022-09-13T16:25:54;27.90;51.40
70107;DHT22;57473;37.508;15.080;2022-09-13T16:28:22;27.90;51.00
70107;DHT22;57473;37.508;15.080;2022-09-13T16:30:50;27.80;50.20
70107;DHT22;57473;37.508;15.080;2022-09-13T16:33:17;27.80;50.60
70107;DHT22;57473;37.508;15.080;2022-09-13T16:35:45;27.80;50.90
70107;DHT22;57473;37.508;15.080;2022-09-13T16:38:13;27.70;51.40
70107;DHT22;57473;37.508;15.080;2022-09-13T16:40:42;27.60;51.30
70107;DHT22;57473;37.508;15.080;2022-09-13T16:43:11;27.60;50.30
70107;DHT22;57473;37.508;15.080;2022-09-13T16:45:39;27.60;50.50
70107;DHT22;57473;37.508;15.080;2022-09-13T16:48:07;27.50;50.70
70107;DHT22;57473;37.508;15.080;2022-09-13T16:50:40;27.50;51.10
70107;DHT22;57473;37.508;15.080;2022-09-13T16:53:08;27.50;49.10
70107;DHT22;57473;37.508;15.080;2022-09-13T16:55:35;27.40;48.30
70107;DHT22;57473;37.508;15.080;2022-09-13T16:58:03;27.40;48.80
70107;DHT22;57473;37.508;15.080;2022-09-13T17:00:30;27.30;49.90
70107;DHT22;57473;37.508;15.080;2022-09-13T17:02:58;27.30;50.50
70107;DHT22;57473;37.508;15.080;2022-09-13T17:05:26;27.20;50.80
70107;DHT22;57473;37.508;15.080;2022-09-13T17:07:53;27.20;49.90
70107;DHT22;57473;37.508;15.080;2022-09-13T17:10:20;27.20;49.70
70107;DHT22;57473;37.508;15.080;2022-09-13T17:12:48;27.20;50.50
70107;DHT22;57473;37.508;15.080;2022-09-13T17:15:15;27.20;49.70
70107;DHT22;57473;37.508;15.080;2022-09-13T17:17:42;27.20;50.10
70107;DHT22;57473;37.508;15.080;2022-09-13T17:20:11;27.20;50.40
70107;DHT22;57473;37.508;15.080;2022-09-13T17:22:39;27.20;49.70
70107;DHT22;57473;37.508;15.080;2022-09-13T17:25:07;27.30;48.70
70107;DHT22;57473;37.508;15.080;2022-09-13T17:27:34;27.40;48.10
70107;DHT22;57473;37.508;15.080;2022-09-13T17:30:02;27.40;48.10
70107;DHT22;57473;37.508;15.080;2022-09-13T17:32:31;27.40;48.20
70107;DHT22;57473;37.508;15.080;2022-09-13T17:34:58;27.50;48.20
70107;DHT22;57473;37.508;15.080;2022-09-13T17:37:27;27.60;47.90
70107;DHT22;57473;37.508;15.080;2022-09-13T17:39:54;27.60;48.00
70107;DHT22;57473;37.508;15.080;2022-09-13T17:42:22;27.60;47.80
70107;DHT22;57473;37.508;15.080;2022-09-13T17:44:49;27.70;48.10
70107;DHT22;57473;37.508;15.080;2022-09-13T17:47:16;27.70;48.50
70107;DHT22;57473;37.508;15.080;2022-09-13T17:49:44;27.60;48.70
70107;DHT22;57473;37.508;15.080;2022-09-13T17:52:12;27.50;49.00
70107;DHT22;57473;37.508;15.080;2022-09-13T17:54:40;27.50;49.40
70107;DHT22;57473;37.508;15.080;2022-09-13T17:57:07;27.50;49.10
70107;DHT22;57473;37.508;15.080;2022-09-13T17:59:37;27.50;49.00
70107;DHT22;57473;37.508;15.080;2022-09-13T18:02:05;27.50;48.90
70107;DHT22;57473;37.508;15.080;2022-09-13T18:04:33;27.40;48.90
70107;DHT22;57473;37.508;15.080;2022-09-13T18:07:00;27.40;49.40
70107;DHT22;57473;37.508;15.080;2022-09-13T18:09:27;27.40;49.90
70107;DHT22;57473;37.508;15.080;2022-09-13T18:11:54;27.40;50.10
70107;DHT22;57473;37.508;15.080;2022-09-13T18:14:21;27.40;50.20
70107;DHT22;57473;37.508;15.080;2022-09-13T18:16:50;27.30;49.90
70107;DHT22;57473;37.508;15.080;2022-09-13T18:19:23;27.40;50.20
70107;DHT22;57473;37.508;15.080;2022-09-13T18:22:10;27.30;50.60
70107;DHT22;57473;37.508;15.080;2022-09-13T18:24:38;27.30;50.40
70107;DHT22;57473;37.508;15.080;2022-09-13T18:27:05;27.40;50.60
70107;DHT22;57473;37.508;15.080;2022-09-13T18:29:33;27.40;50.20
70107;DHT22;57473;37.508;15.080;2022-09-13T18:32:00;27.30;50.30
70107;DHT22;57473;37.508;15.080;2022-09-13T18:34:27;27.20;50.80
70107;DHT22;57473;37.508;15.080;2022-09-13T18:36:55;27.20;50.70
70107;DHT22;57473;37.508;15.080;2022-09-13T18:39:23;27.20;50.50
70107;DHT22;57473;37.508;15.080;2022-09-13T18:41:51;27.10;50.70
70107;DHT22;57473;37.508;15.080;2022-09-13T18:44:18;27.10;50.80
70107;DHT22;57473;37.508;15.080;2022-09-13T18:46:46;27.10;51.30
70107;DHT22;57473;37.508;15.080;2022-09-13T18:49:13;27.00;51.70
70107;DHT22;57473;37.508;15.080;2022-09-13T18:51:42;27.10;51.50
70107;DHT22;57473;37.508;15.080;2022-09-13T18:54:12;27.00;51.60
70107;DHT22;57473;37.508;15.080;2022-09-13T18:56:42;27.00;51.80
70107;DHT22;57473;37.508;15.080;2022-09-13T18:59:09;27.00;52.70
70107;DHT22;57473;37.508;15.080;2022-09-13T19:01:39;27.00;52.10
70107;DHT22;57473;37.508;15.080;2022-09-13T19:04:11;27.00;52.20
70107;DHT22;57473;37.508;15.080;2022-09-13T19:06:46;26.90;52.40
70107;DHT22;57473;37.508;15.080;2022-09-13T19:09:14;26.90;52.70